KCNM

Cavern City Air Terminal

Airport
ICAO code
KCNM
IATA Code
CNM
Summary
ICAO Region
NAM
ICAO Territory
Location

Carlsbad, New Mexico

Serving
Carlsbad
Elevation
3295 ft
Coordinates
32° 20' 15" N , 104° 15' 48" W
KCC
Airport LOS
Parallel Runway Operation
Airport RE
Hot and High Operations
Airport WX
Tornado
Metar
KCNM 181653Z AUTO 02005KT 10SM CLR 27/M07 A3003 RMK AO2 SLP118 T02721067

Description

Cavern City Air Terminal is a public use airport located 5 nm southwest of the central business district of Carlsbad, a city in Eddy County, New Mexico, USA.

 

Airport map

Aerial View

SKYbrary Partners:

Safety knowledge contributed by: